sensor_id;sensor_type;location;lat;lon;timestamp;pressure;altitude;pressure_sealevel;temperature;humidity
15678;BME280;7939;50.814;6.368;2023-04-26T00:01:00;100192.84;;;13.29;47.83
15678;BME280;7939;50.814;6.368;2023-04-26T00:03:29;100185.16;;;13.29;47.50
15678;BME280;7939;50.814;6.368;2023-04-26T00:05:58;100186.84;;;13.25;48.13
15678;BME280;7939;50.814;6.368;2023-04-26T00:08:28;100189.44;;;13.23;47.82
15678;BME280;7939;50.814;6.368;2023-04-26T00:10:54;100180.91;;;13.21;47.57
15678;BME280;7939;50.814;6.368;2023-04-26T00:13:21;100177.50;;;13.21;47.67
15678;BME280;7939;50.814;6.368;2023-04-26T00:15:47;100181.72;;;13.17;47.98
15678;BME280;7939;50.814;6.368;2023-04-26T00:18:14;100172.34;;;13.15;48.51
15678;BME280;7939;50.814;6.368;2023-04-26T00:20:42;100184.31;;;13.14;48.29
15678;BME280;7939;50.814;6.368;2023-04-26T00:23:09;100176.63;;;13.13;48.89
15678;BME280;7939;50.814;6.368;2023-04-26T00:25:36;100175.75;;;13.12;48.22
15678;BME280;7939;50.814;6.368;2023-04-26T00:28:03;100175.78;;;13.09;48.95
15678;BME280;7939;50.814;6.368;2023-04-26T00:30:30;100172.34;;;13.07;47.44
15678;BME280;7939;50.814;6.368;2023-04-26T00:32:58;100177.47;;;13.07;48.47
15678;BME280;7939;50.814;6.368;2023-04-26T00:35:25;100171.53;;;13.05;48.07
15678;BME280;7939;50.814;6.368;2023-04-26T00:37:53;100174.97;;;13.03;48.21
15678;BME280;7939;50.814;6.368;2023-04-26T00:40:19;100176.66;;;13.01;47.39
15678;BME280;7939;50.814;6.368;2023-04-26T00:42:46;100178.38;;;12.99;48.62
15678;BME280;7939;50.814;6.368;2023-04-26T00:45:12;100185.22;;;12.98;48.51
15678;BME280;7939;50.814;6.368;2023-04-26T00:47:39;100178.41;;;12.97;48.67
15678;BME280;7939;50.814;6.368;2023-04-26T00:50:06;100174.09;;;12.94;49.04
15678;BME280;7939;50.814;6.368;2023-04-26T00:52:34;100175.00;;;12.92;48.35
15678;BME280;7939;50.814;6.368;2023-04-26T00:55:04;100169.88;;;12.89;48.54
15678;BME280;7939;50.814;6.368;2023-04-26T00:57:31;100172.44;;;12.89;48.63
15678;BME280;7939;50.814;6.368;2023-04-26T00:59:58;100174.13;;;12.87;48.30
15678;BME280;7939;50.814;6.368;2023-04-26T01:02:24;100173.31;;;12.85;48.59
15678;BME280;7939;50.814;6.368;2023-04-26T01:04:51;100174.16;;;12.84;48.58
15678;BME280;7939;50.814;6.368;2023-04-26T01:07:17;100175.03;;;12.83;48.57
15678;BME280;7939;50.814;6.368;2023-04-26T01:09:44;100175.88;;;12.80;48.20
15678;BME280;7939;50.814;6.368;2023-04-26T01:12:14;100174.16;;;12.79;48.25
15678;BME280;7939;50.814;6.368;2023-04-26T01:14:41;100175.03;;;12.77;48.84
15678;BME280;7939;50.814;6.368;2023-04-26T01:17:08;100176.75;;;12.73;48.61
15678;BME280;7939;50.814;6.368;2023-04-26T01:19:35;100177.59;;;12.74;48.47
15678;BME280;7939;50.814;6.368;2023-04-26T01:22:02;100174.19;;;12.72;48.14
15678;BME280;7939;50.814;6.368;2023-04-26T01:24:31;100177.63;;;12.71;47.86
15678;BME280;7939;50.814;6.368;2023-04-26T01:27:00;100180.16;;;12.69;49.27
15678;BME280;7939;50.814;6.368;2023-04-26T01:29:29;100184.44;;;12.67;48.89
15678;BME280;7939;50.814;6.368;2023-04-26T01:31:56;100178.47;;;12.68;48.15
15678;BME280;7939;50.814;6.368;2023-04-26T01:34:23;100175.94;;;12.65;48.18
15678;BME280;7939;50.814;6.368;2023-04-26T01:36:49;100170.81;;;12.63;48.83
15678;BME280;7939;50.814;6.368;2023-04-26T01:39:16;100176.75;;;12.62;49.28
15678;BME280;7939;50.814;6.368;2023-04-26T01:41:44;100177.66;;;12.58;48.18
15678;BME280;7939;50.814;6.368;2023-04-26T01:44:10;100173.38;;;12.57;48.51
15678;BME280;7939;50.814;6.368;2023-04-26T01:46:37;100175.06;;;12.57;49.18
15678;BME280;7939;50.814;6.368;2023-04-26T01:49:04;100175.09;;;12.54;49.00
15678;BME280;7939;50.814;6.368;2023-04-26T01:51:30;100175.09;;;12.52;48.67
15678;BME280;7939;50.814;6.368;2023-04-26T01:53:58;100174.25;;;12.52;49.28
15678;BME280;7939;50.814;6.368;2023-04-26T01:56:25;100175.94;;;12.50;49.54
15678;BME280;7939;50.814;6.368;2023-04-26T01:58:53;100186.19;;;12.48;48.59
15678;BME280;7939;50.814;6.368;2023-04-26T02:01:20;100181.09;;;12.47;48.85
15678;BME280;7939;50.814;6.368;2023-04-26T02:03:47;100176.81;;;12.46;49.43
15678;BME280;7939;50.814;6.368;2023-04-26T02:06:14;100180.25;;;12.45;48.89
15678;BME280;7939;50.814;6.368;2023-04-26T02:08:41;100180.22;;;12.43;48.95
15678;BME280;7939;50.814;6.368;2023-04-26T02:11:07;100175.09;;;12.41;48.84
15678;BME280;7939;50.814;6.368;2023-04-26T02:13:34;100181.94;;;12.39;48.51
15678;BME280;7939;50.814;6.368;2023-04-26T02:16:03;100181.91;;;12.38;48.86
15678;BME280;7939;50.814;6.368;2023-04-26T02:18:30;100181.09;;;12.36;48.70
15678;BME280;7939;50.814;6.368;2023-04-26T02:20:56;100173.41;;;12.34;49.00
15678;BME280;7939;50.814;6.368;2023-04-26T02:23:23;100182.78;;;12.31;48.62
15678;BME280;7939;50.814;6.368;2023-04-26T02:25:50;100175.09;;;12.31;49.44
15678;BME280;7939;50.814;6.368;2023-04-26T02:28:17;100175.97;;;12.30;48.48
15678;BME280;7939;50.814;6.368;2023-04-26T02:30:43;100174.28;;;12.26;48.44
15678;BME280;7939;50.814;6.368;2023-04-26T02:33:11;100170.84;;;12.27;49.01
15678;BME280;7939;50.814;6.368;2023-04-26T02:35:38;100172.56;;;12.23;49.01
15678;BME280;7939;50.814;6.368;2023-04-26T02:38:06;100173.41;;;12.21;48.71
15678;BME280;7939;50.814;6.368;2023-04-26T02:40:32;100177.69;;;12.20;49.45
15678;BME280;7939;50.814;6.368;2023-04-26T02:42:59;100176.84;;;12.20;49.09
15678;BME280;7939;50.814;6.368;2023-04-26T02:45:26;100179.38;;;12.17;48.66
15678;BME280;7939;50.814;6.368;2023-04-26T02:47:52;100181.09;;;12.18;48.55
15678;BME280;7939;50.814;6.368;2023-04-26T02:50:20;100172.53;;;12.12;49.24
15678;BME280;7939;50.814;6.368;2023-04-26T02:52:47;100175.94;;;12.13;49.15
15678;BME280;7939;50.814;6.368;2023-04-26T02:55:13;100170.84;;;12.11;49.12
15678;BME280;7939;50.814;6.368;2023-04-26T02:57:40;100167.44;;;12.09;48.56
15678;BME280;7939;50.814;6.368;2023-04-26T03:00:07;100158.06;;;12.07;49.56
15678;BME280;7939;50.814;6.368;2023-04-26T03:02:35;100157.19;;;12.05;49.50
15678;BME280;7939;50.814;6.368;2023-04-26T03:05:01;100156.31;;;12.06;49.04
15678;BME280;7939;50.814;6.368;2023-04-26T03:07:29;100155.47;;;12.02;49.06
15678;BME280;7939;50.814;6.368;2023-04-26T03:09:57;100153.78;;;12.01;48.81
15678;BME280;7939;50.814;6.368;2023-04-26T03:12:25;100151.19;;;12.00;48.71
15678;BME280;7939;50.814;6.368;2023-04-26T03:14:52;100147.78;;;11.98;48.56
15678;BME280;7939;50.814;6.368;2023-04-26T03:17:18;100147.78;;;11.96;49.25
15678;BME280;7939;50.814;6.368;2023-04-26T03:19:45;100140.09;;;11.93;49.36
15678;BME280;7939;50.814;6.368;2023-04-26T03:22:12;100137.53;;;11.92;48.56
15678;BME280;7939;50.814;6.368;2023-04-26T03:24:42;100146.09;;;11.91;48.61
15678;BME280;7939;50.814;6.368;2023-04-26T03:27:08;100139.25;;;11.86;48.55
15678;BME280;7939;50.814;6.368;2023-04-26T03:29:35;100140.97;;;11.89;48.84
15678;BME280;7939;50.814;6.368;2023-04-26T03:32:01;100135.84;;;11.84;49.11
15678;BME280;7939;50.814;6.368;2023-04-26T03:34:28;100131.56;;;11.85;49.60
15678;BME280;7939;50.814;6.368;2023-04-26T03:36:55;100134.13;;;11.83;49.92
15678;BME280;7939;50.814;6.368;2023-04-26T03:39:21;100131.59;;;11.82;48.81
15678;BME280;7939;50.814;6.368;2023-04-26T03:41:49;100135.81;;;11.78;49.46
15678;BME280;7939;50.814;6.368;2023-04-26T03:44:16;100134.94;;;11.79;48.78
15678;BME280;7939;50.814;6.368;2023-04-26T03:46:43;100135.81;;;11.77;49.60
15678;BME280;7939;50.814;6.368;2023-04-26T03:49:10;100141.75;;;11.74;49.14
15678;BME280;7939;50.814;6.368;2023-04-26T03:51:36;100138.34;;;11.72;48.67
15678;BME280;7939;50.814;6.368;2023-04-26T03:54:03;100136.66;;;11.71;48.69
15678;BME280;7939;50.814;6.368;2023-04-26T03:56:30;100136.66;;;11.70;49.62
15678;BME280;7939;50.814;6.368;2023-04-26T03:58:58;100139.19;;;11.68;48.77
15678;BME280;7939;50.814;6.368;2023-04-26T04:01:25;100137.50;;;11.66;49.51
15678;BME280;7939;50.814;6.368;2023-04-26T04:03:51;100129.81;;;11.64;49.52
15678;BME280;7939;50.814;6.368;2023-04-26T04:06:18;100139.19;;;11.62;49.43
15678;BME280;7939;50.814;6.368;2023-04-26T04:08:46;100135.78;;;11.63;49.61
15678;BME280;7939;50.814;6.368;2023-04-26T04:11:13;100140.91;;;11.58;49.61
15678;BME280;7939;50.814;6.368;2023-04-26T04:13:40;100141.75;;;11.60;49.06
15678;BME280;7939;50.814;6.368;2023-04-26T04:16:08;100140.91;;;11.58;49.02
15678;BME280;7939;50.814;6.368;2023-04-26T04:18:35;100146.03;;;11.57;48.74
15678;BME280;7939;50.814;6.368;2023-04-26T04:21:02;100145.16;;;11.55;49.24
15678;BME280;7939;50.814;6.368;2023-04-26T04:23:28;100150.25;;;11.55;49.63
15678;BME280;7939;50.814;6.368;2023-04-26T04:25:55;100145.16;;;11.52;49.41
15678;BME280;7939;50.814;6.368;2023-04-26T04:28:22;100149.41;;;11.50;48.68
15678;BME280;7939;50.814;6.368;2023-04-26T04:30:48;100150.25;;;11.47;49.13
15678;BME280;7939;50.814;6.368;2023-04-26T04:33:16;100150.25;;;11.47;49.04
15678;BME280;7939;50.814;6.368;2023-04-26T04:35:43;100158.75;;;11.43;49.51
15678;BME280;7939;50.814;6.368;2023-04-26T04:38:10;100151.94;;;11.42;49.13
15678;BME280;7939;50.814;6.368;2023-04-26T04:40:36;100156.22;;;11.40;49.08
15678;BME280;7939;50.814;6.368;2023-04-26T04:43:03;100163.03;;;11.38;49.24
15678;BME280;7939;50.814;6.368;2023-04-26T04:45:29;100161.34;;;11.39;49.20
15678;BME280;7939;50.814;6.368;2023-04-26T04:47:56;100163.91;;;11.39;49.46
15678;BME280;7939;50.814;6.368;2023-04-26T04:50:24;100165.56;;;11.37;49.25
15678;BME280;7939;50.814;6.368;2023-04-26T04:52:52;100179.22;;;11.37;49.23
15678;BME280;7939;50.814;6.368;2023-04-26T04:55:21;100175.81;;;11.37;49.46
15678;BME280;7939;50.814;6.368;2023-04-26T04:57:48;100163.00;;;11.35;49.23
15678;BME280;7939;50.814;6.368;2023-04-26T05:00:15;100169.00;;;11.32;49.44
15678;BME280;7939;50.814;6.368;2023-04-26T05:02:42;100175.81;;;11.33;49.50
15678;BME280;7939;50.814;6.368;2023-04-26T05:05:09;100170.66;;;11.30;49.34
15678;BME280;7939;50.814;6.368;2023-04-26T05:07:37;100184.34;;;11.34;49.59
15678;BME280;7939;50.814;6.368;2023-04-26T05:10:05;100181.78;;;11.34;49.68
15678;BME280;7939;50.814;6.368;2023-04-26T05:12:32;100186.03;;;11.33;49.60
15678;BME280;7939;50.814;6.368;2023-04-26T05:14:59;100191.16;;;11.33;49.59
15678;BME280;7939;50.814;6.368;2023-04-26T05:17:26;100184.34;;;11.32;49.53
15678;BME280;7939;50.814;6.368;2023-04-26T05:19:55;100186.88;;;11.31;49.40
15678;BME280;7939;50.814;6.368;2023-04-26T05:22:22;100184.34;;;11.32;49.75
15678;BME280;7939;50.814;6.368;2023-04-26T05:24:49;100192.88;;;11.33;49.51
15678;BME280;7939;50.814;6.368;2023-04-26T05:27:16;100193.69;;;11.30;49.25
15678;BME280;7939;50.814;6.368;2023-04-26T05:29:43;100196.25;;;11.26;49.82
15678;BME280;7939;50.814;6.368;2023-04-26T05:32:10;100194.53;;;11.25;49.56
15678;BME280;7939;50.814;6.368;2023-04-26T05:34:36;100196.25;;;11.29;49.36
15678;BME280;7939;50.814;6.368;2023-04-26T05:37:03;100206.50;;;11.27;50.07
15678;BME280;7939;50.814;6.368;2023-04-26T05:39:30;100202.19;;;11.25;49.83
15678;BME280;7939;50.814;6.368;2023-04-26T05:41:57;100203.09;;;11.27;49.43
15678;BME280;7939;50.814;6.368;2023-04-26T05:44:24;100203.09;;;11.27;49.28
15678;BME280;7939;50.814;6.368;2023-04-26T05:46:51;100214.13;;;11.24;49.60
15678;BME280;7939;50.814;6.368;2023-04-26T05:49:18;100207.34;;;11.29;50.10
15678;BME280;7939;50.814;6.368;2023-04-26T05:51:44;100213.31;;;11.30;49.94
15678;BME280;7939;50.814;6.368;2023-04-26T05:54:11;100209.06;;;11.26;49.73
15678;BME280;7939;50.814;6.368;2023-04-26T05:56:38;100207.34;;;11.28;49.60
15678;BME280;7939;50.814;6.368;2023-04-26T05:59:07;100204.78;;;11.26;50.09
15678;BME280;7939;50.814;6.368;2023-04-26T06:01:33;100206.47;;;11.24;49.93
15678;BME280;7939;50.814;6.368;2023-04-26T06:04:00;100208.16;;;11.24;49.96
15678;BME280;7939;50.814;6.368;2023-04-26T06:06:26;100215.88;;;11.25;49.42
15678;BME280;7939;50.814;6.368;2023-04-26T06:08:53;100220.09;;;11.25;49.54
15678;BME280;7939;50.814;6.368;2023-04-26T06:11:21;100219.25;;;11.23;49.57
15678;BME280;7939;50.814;6.368;2023-04-26T06:13:47;100223.50;;;11.24;49.76
15678;BME280;7939;50.814;6.368;2023-04-26T06:16:15;100224.38;;;11.20;50.03
15678;BME280;7939;50.814;6.368;2023-04-26T06:18:42;100230.31;;;11.19;49.67
15678;BME280;7939;50.814;6.368;2023-04-26T06:21:09;100226.09;;;11.27;49.73
15678;BME280;7939;50.814;6.368;2023-04-26T06:23:36;100232.03;;;11.24;49.85
15678;BME280;7939;50.814;6.368;2023-04-26T06:26:03;100220.13;;;11.28;50.20
15678;BME280;7939;50.814;6.368;2023-04-26T06:28:29;100220.13;;;11.31;49.77
15678;BME280;7939;50.814;6.368;2023-04-26T06:30:56;100227.00;;;11.32;49.51
15678;BME280;7939;50.814;6.368;2023-04-26T06:33:24;100226.13;;;11.34;50.18
15678;BME280;7939;50.814;6.368;2023-04-26T06:35:51;100226.97;;;11.35;50.20
15678;BME280;7939;50.814;6.368;2023-04-26T06:38:17;100232.13;;;11.38;50.16
15678;BME280;7939;50.814;6.368;2023-04-26T06:40:44;100226.16;;;11.41;49.62
15678;BME280;7939;50.814;6.368;2023-04-26T06:43:11;100228.72;;;11.42;50.59
15678;BME280;7939;50.814;6.368;2023-04-26T06:45:37;100230.41;;;11.43;49.99
15678;BME280;7939;50.814;6.368;2023-04-26T06:48:04;100227.88;;;11.45;49.92
15678;BME280;7939;50.814;6.368;2023-04-26T06:50:32;100217.63;;;11.43;49.93
15678;BME280;7939;50.814;6.368;2023-04-26T06:53:02;100234.72;;;11.46;49.66
15678;BME280;7939;50.814;6.368;2023-04-26T06:55:29;100227.88;;;11.48;50.41
15678;BME280;7939;50.814;6.368;2023-04-26T06:57:56;100235.56;;;11.48;50.24
15678;BME280;7939;50.814;6.368;2023-04-26T07:00:22;100236.41;;;11.48;49.83
15678;BME280;7939;50.814;6.368;2023-04-26T07:02:49;100226.16;;;11.50;49.98
15678;BME280;7939;50.814;6.368;2023-04-26T07:05:15;100230.44;;;11.45;49.63
15678;BME280;7939;50.814;6.368;2023-04-26T07:07:43;100227.88;;;11.49;49.57
15678;BME280;7939;50.814;6.368;2023-04-26T07:10:10;100236.41;;;11.48;50.23
15678;BME280;7939;50.814;6.368;2023-04-26T07:12:37;100234.72;;;11.49;49.95
15678;BME280;7939;50.814;6.368;2023-04-26T07:15:04;100238.97;;;11.50;50.26
15678;BME280;7939;50.814;6.368;2023-04-26T07:17:31;100230.47;;;11.52;49.66
15678;BME280;7939;50.814;6.368;2023-04-26T07:19:58;100240.69;;;11.55;50.41
15678;BME280;7939;50.814;6.368;2023-04-26T07:22:25;100240.69;;;11.55;50.66
15678;BME280;7939;50.814;6.368;2023-04-26T07:24:53;100234.75;;;11.58;50.10
15678;BME280;7939;50.814;6.368;2023-04-26T07:27:19;100244.97;;;11.55;49.56
15678;BME280;7939;50.814;6.368;2023-04-26T07:29:46;100245.81;;;11.55;49.63
15678;BME280;7939;50.814;6.368;2023-04-26T07:32:13;100245.00;;;11.58;49.92
15678;BME280;7939;50.814;6.368;2023-04-26T07:34:39;100244.13;;;11.60;50.43
15678;BME280;7939;50.814;6.368;2023-04-26T07:37:06;100231.34;;;11.62;50.63
15678;BME280;7939;50.814;6.368;2023-04-26T07:39:33;100237.34;;;11.66;49.90
15678;BME280;7939;50.814;6.368;2023-04-26T07:42:01;100239.88;;;11.67;50.41
15678;BME280;7939;50.814;6.368;2023-04-26T07:44:28;100235.66;;;11.71;49.83
15678;BME280;7939;50.814;6.368;2023-04-26T07:46:55;100230.53;;;11.72;50.47
15678;BME280;7939;50.814;6.368;2023-04-26T07:49:21;100235.63;;;11.72;50.51
15678;BME280;7939;50.814;6.368;2023-04-26T07:51:48;100228.84;;;11.76;49.39
15678;BME280;7939;50.814;6.368;2023-04-26T07:54:15;100225.41;;;11.69;49.33
15678;BME280;7939;50.814;6.368;2023-04-26T07:56:42;100228.81;;;11.64;49.05
15678;BME280;7939;50.814;6.368;2023-04-26T07:59:10;100225.38;;;11.66;49.56
15678;BME280;7939;50.814;6.368;2023-04-26T08:01:36;100219.41;;;11.69;49.04
15678;BME280;7939;50.814;6.368;2023-04-26T08:04:03;100218.56;;;11.71;49.08
15678;BME280;7939;50.814;6.368;2023-04-26T08:06:30;100216.88;;;11.76;50.39
15678;BME280;7939;50.814;6.368;2023-04-26T08:08:57;100222.84;;;11.78;49.68
15678;BME280;7939;50.814;6.368;2023-04-26T08:11:24;100216.88;;;11.78;49.41
15678;BME280;7939;50.814;6.368;2023-04-26T08:13:50;100212.63;;;11.78;48.76
15678;BME280;7939;50.814;6.368;2023-04-26T08:16:18;100209.19;;;11.75;48.21
15678;BME280;7939;50.814;6.368;2023-04-26T08:18:45;100210.91;;;11.80;48.86
15678;BME280;7939;50.814;6.368;2023-04-26T08:21:11;100217.72;;;11.75;48.16
15678;BME280;7939;50.814;6.368;2023-04-26T08:23:38;100215.16;;;11.72;47.04
15678;BME280;7939;50.814;6.368;2023-04-26T08:26:05;100210.03;;;11.80;48.28
15678;BME280;7939;50.814;6.368;2023-04-26T08:28:31;100215.19;;;11.81;47.26
15678;BME280;7939;50.814;6.368;2023-04-26T08:30:58;100222.84;;;11.77;47.25
15678;BME280;7939;50.814;6.368;2023-04-26T08:33:26;100222.06;;;11.84;47.26
15678;BME280;7939;50.814;6.368;2023-04-26T08:35:52;100223.72;;;11.79;47.17
15678;BME280;7939;50.814;6.368;2023-04-26T08:38:19;100222.03;;;11.85;47.03
15678;BME280;7939;50.814;6.368;2023-04-26T08:40:46;100223.78;;;11.88;47.56
15678;BME280;7939;50.814;6.368;2023-04-26T08:43:14;100228.00;;;11.86;46.69
15678;BME280;7939;50.814;6.368;2023-04-26T08:45:44;100229.75;;;11.92;47.02
15678;BME280;7939;50.814;6.368;2023-04-26T08:48:11;100233.16;;;11.94;46.11
15678;BME280;7939;50.814;6.368;2023-04-26T08:50:42;100223.75;;;11.93;46.94
15678;BME280;7939;50.814;6.368;2023-04-26T08:53:12;100224.63;;;11.90;47.10
15678;BME280;7939;50.814;6.368;2023-04-26T08:55:40;100233.16;;;11.94;46.98
15678;BME280;7939;50.814;6.368;2023-04-26T08:58:07;100231.47;;;11.97;47.53
15678;BME280;7939;50.814;6.368;2023-04-26T09:00:35;100232.31;;;11.95;47.48
15678;BME280;7939;50.814;6.368;2023-04-26T09:03:02;100238.28;;;11.94;47.96
15678;BME280;7939;50.814;6.368;2023-04-26T09:05:28;100226.31;;;11.91;46.80
15678;BME280;7939;50.814;6.368;2023-04-26T09:07:59;100221.19;;;11.93;47.14
15678;BME280;7939;50.814;6.368;2023-04-26T09:10:26;100223.75;;;11.94;47.58
15678;BME280;7939;50.814;6.368;2023-04-26T09:12:54;100225.50;;;11.95;47.53
15678;BME280;7939;50.814;6.368;2023-04-26T09:15:23;100222.06;;;11.93;47.15
15678;BME280;7939;50.814;6.368;2023-04-26T09:17:51;100226.34;;;11.90;46.71
15678;BME280;7939;50.814;6.368;2023-04-26T09:20:20;100210.09;;;11.94;47.18
15678;BME280;7939;50.814;6.368;2023-04-26T09:22:47;100216.94;;;11.84;46.52
15678;BME280;7939;50.814;6.368;2023-04-26T09:25:17;100208.41;;;11.97;46.82
15678;BME280;7939;50.814;6.368;2023-04-26T09:27:44;100215.22;;;12.00;47.35
15678;BME280;7939;50.814;6.368;2023-04-26T09:30:13;100220.38;;;12.01;47.23
15678;BME280;7939;50.814;6.368;2023-04-26T09:32:50;100215.25;;;12.03;46.44
15678;BME280;7939;50.814;6.368;2023-04-26T09:35:21;100205.00;;;12.03;45.91
15678;BME280;7939;50.814;6.368;2023-04-26T09:37:51;100204.16;;;12.08;46.79
15678;BME280;7939;50.814;6.368;2023-04-26T09:40:20;100205.00;;;12.09;46.91
15678;BME280;7939;50.814;6.368;2023-04-26T09:42:55;100198.16;;;12.11;46.16
15678;BME280;7939;50.814;6.368;2023-04-26T09:45:22;100195.59;;;12.23;46.70
15678;BME280;7939;50.814;6.368;2023-04-26T09:47:49;100193.91;;;12.27;46.01
15678;BME280;7939;50.814;6.368;2023-04-26T09:50:24;100197.31;;;12.42;46.27
15678;BME280;7939;50.814;6.368;2023-04-26T09:52:51;100204.13;;;12.48;46.53
15678;BME280;7939;50.814;6.368;2023-04-26T09:55:26;100195.59;;;12.52;46.01
15678;BME280;7939;50.814;6.368;2023-04-26T09:57:53;100194.75;;;12.58;45.41
15678;BME280;7939;50.814;6.368;2023-04-26T10:00:22;100196.44;;;12.60;46.51
15678;BME280;7939;50.814;6.368;2023-04-26T10:02:49;100193.03;;;12.64;45.21
15678;BME280;7939;50.814;6.368;2023-04-26T10:05:16;100191.31;;;12.63;45.49
15678;BME280;7939;50.814;6.368;2023-04-26T10:07:43;100193.03;;;12.64;44.74
15678;BME280;7939;50.814;6.368;2023-04-26T10:10:11;100200.72;;;12.64;44.58
15678;BME280;7939;50.814;6.368;2023-04-26T10:12:39;100197.28;;;12.67;43.70
15678;BME280;7939;50.814;6.368;2023-04-26T10:15:08;100201.56;;;12.66;44.05
15678;BME280;7939;50.814;6.368;2023-04-26T10:17:36;100188.75;;;12.65;44.29
15678;BME280;7939;50.814;6.368;2023-04-26T10:20:06;100185.31;;;12.67;44.19
15678;BME280;7939;50.814;6.368;2023-04-26T10:22:39;100193.00;;;12.66;43.68
15678;BME280;7939;50.814;6.368;2023-04-26T10:25:08;100193.03;;;12.64;43.32
15678;BME280;7939;50.814;6.368;2023-04-26T10:27:50;100192.16;;;12.62;43.69
15678;BME280;7939;50.814;6.368;2023-04-26T10:30:19;100188.75;;;12.63;43.94
15678;BME280;7939;50.814;6.368;2023-04-26T10:33:19;100188.75;;;12.65;43.19
15678;BME280;7939;50.814;6.368;2023-04-26T10:36:02;100187.03;;;12.62;42.74
15678;BME280;7939;50.814;6.368;2023-04-26T10:38:29;100185.31;;;12.63;42.26
15678;BME280;7939;50.814;6.368;2023-04-26T10:41:27;100180.19;;;12.60;42.62
15678;BME280;7939;50.814;6.368;2023-04-26T10:43:57;100189.63;;;12.58;42.53
15678;BME280;7939;50.814;6.368;2023-04-26T10:46:35;100182.75;;;12.61;42.24
15678;BME280;7939;50.814;6.368;2023-04-26T10:49:15;100176.78;;;12.59;42.76
15678;BME280;7939;50.814;6.368;2023-04-26T10:52:08;100176.78;;;12.58;42.76
15678;BME280;7939;50.814;6.368;2023-04-26T10:54:48;100169.09;;;12.59;41.75
15678;BME280;7939;50.814;6.368;2023-04-26T10:57:15;100175.06;;;12.64;41.73
15678;BME280;7939;50.814;6.368;2023-04-26T11:02:56;100171.63;;;12.68;42.86
15678;BME280;7939;50.814;6.368;2023-04-26T11:08:23;100171.63;;;12.73;41.99
15678;BME280;7939;50.814;6.368;2023-04-26T11:11:06;100164.78;;;12.74;43.01
15678;BME280;7939;50.814;6.368;2023-04-26T11:13:37;100161.38;;;12.76;41.37
15678;BME280;7939;50.814;6.368;2023-04-26T11:16:05;100165.66;;;12.73;42.10
15678;BME280;7939;50.814;6.368;2023-04-26T11:18:35;100164.78;;;12.72;42.30
15678;BME280;7939;50.814;6.368;2023-04-26T11:21:03;100155.41;;;12.71;42.84
15678;BME280;7939;50.814;6.368;2023-04-26T11:23:30;100154.53;;;12.77;42.06
15678;BME280;7939;50.814;6.368;2023-04-26T11:25:57;100150.25;;;12.77;42.38
15678;BME280;7939;50.814;6.368;2023-04-26T11:28:24;100142.53;;;12.76;41.86
15678;BME280;7939;50.814;6.368;2023-04-26T11:30:51;100139.16;;;12.72;42.21
15678;BME280;7939;50.814;6.368;2023-04-26T11:33:19;100146.84;;;12.71;42.45
15678;BME280;7939;50.814;6.368;2023-04-26T11:35:49;100139.13;;;12.74;42.80
15678;BME280;7939;50.814;6.368;2023-04-26T11:38:16;100134.00;;;12.83;43.03
15678;BME280;7939;50.814;6.368;2023-04-26T11:40:43;100127.13;;;12.86;42.84
15678;BME280;7939;50.814;6.368;2023-04-26T11:43:10;100130.53;;;12.90;42.20
15678;BME280;7939;50.814;6.368;2023-04-26T11:45:38;100134.81;;;12.89;42.52
15678;BME280;7939;50.814;6.368;2023-04-26T11:48:06;100136.53;;;12.87;42.23
15678;BME280;7939;50.814;6.368;2023-04-26T11:50:36;100137.41;;;12.83;41.76
15678;BME280;7939;50.814;6.368;2023-04-26T11:53:07;100133.09;;;12.87;42.45
15678;BME280;7939;50.814;6.368;2023-04-26T11:55:34;100135.66;;;12.88;41.82
15678;BME280;7939;50.814;6.368;2023-04-26T11:58:09;100142.50;;;12.92;41.16
15678;BME280;7939;50.814;6.368;2023-04-26T12:00:36;100141.63;;;12.93;40.68
15678;BME280;7939;50.814;6.368;2023-04-26T12:03:04;100142.50;;;12.95;42.25
15678;BME280;7939;50.814;6.368;2023-04-26T12:05:31;100135.63;;;12.98;42.03
15678;BME280;7939;50.814;6.368;2023-04-26T12:07:59;100144.19;;;12.93;40.78
15678;BME280;7939;50.814;6.368;2023-04-26T12:10:29;100147.63;;;12.95;41.20
15678;BME280;7939;50.814;6.368;2023-04-26T12:12:58;100141.63;;;13.01;42.11
15678;BME280;7939;50.814;6.368;2023-04-26T12:15:27;100132.19;;;13.00;41.06
15678;BME280;7939;50.814;6.368;2023-04-26T12:17:55;100135.63;;;13.02;42.04
15678;BME280;7939;50.814;6.368;2023-04-26T12:20:30;100126.19;;;13.09;41.19
15678;BME280;7939;50.814;6.368;2023-04-26T12:23:02;100135.59;;;13.08;41.87
15678;BME280;7939;50.814;6.368;2023-04-26T12:25:31;100138.16;;;13.05;41.96
15678;BME280;7939;50.814;6.368;2023-04-26T12:27:58;100138.19;;;12.98;41.68
15678;BME280;7939;50.814;6.368;2023-04-26T12:30:26;100133.88;;;13.07;41.12
15678;BME280;7939;50.814;6.368;2023-04-26T12:32:54;100125.34;;;13.05;41.62
15678;BME280;7939;50.814;6.368;2023-04-26T12:35:22;100129.56;;;13.12;40.96
15678;BME280;7939;50.814;6.368;2023-04-26T12:37:49;100128.72;;;13.15;41.34
15678;BME280;7939;50.814;6.368;2023-04-26T12:40:17;100127.84;;;13.17;41.79
15678;BME280;7939;50.814;6.368;2023-04-26T12:42:47;100122.72;;;13.16;41.82
15678;BME280;7939;50.814;6.368;2023-04-26T12:45:15;100129.56;;;13.20;41.97
15678;BME280;7939;50.814;6.368;2023-04-26T12:47:43;100121.00;;;13.13;42.29
15678;BME280;7939;50.814;6.368;2023-04-26T12:50:10;100116.75;;;13.14;41.66
15678;BME280;7939;50.814;6.368;2023-04-26T12:52:37;100117.63;;;13.10;42.18
15678;BME280;7939;50.814;6.368;2023-04-26T12:55:06;100119.28;;;13.17;40.85
15678;BME280;7939;50.814;6.368;2023-04-26T12:57:32;100116.72;;;13.17;41.62
15678;BME280;7939;50.814;6.368;2023-04-26T13:00:00;100110.75;;;13.12;41.84
15678;BME280;7939;50.814;6.368;2023-04-26T13:02:27;100117.56;;;13.17;41.67
15678;BME280;7939;50.814;6.368;2023-04-26T13:04:53;100113.28;;;13.19;41.67
15678;BME280;7939;50.814;6.368;2023-04-26T13:07:21;100116.75;;;13.12;42.55
15678;BME280;7939;50.814;6.368;2023-04-26T13:09:47;100116.75;;;13.15;42.35